createdAt,value
2022-10-16T00:02:00.719Z,33.25
2022-10-16T00:04:02.450Z,31.92
2022-10-16T00:06:04.522Z,27.20
2022-10-16T00:08:06.179Z,26.95
2022-10-16T00:10:08.199Z,20.60
2022-10-16T00:12:09.720Z,27.92
2022-10-16T00:14:13.041Z,21.67
2022-10-16T00:16:14.858Z,27.75
2022-10-16T00:18:16.385Z,35.55
2022-10-16T00:20:17.893Z,25.73
2022-10-16T00:22:19.304Z,39.85
2022-10-16T00:24:20.803Z,23.10
2022-10-16T00:26:22.319Z,21.30
2022-10-16T00:28:23.914Z,20.83
2022-10-16T00:30:27.791Z,24.17
2022-10-16T00:32:29.311Z,26.33
2022-10-16T00:34:30.827Z,29.75
2022-10-16T00:36:33.062Z,42.00
2022-10-16T00:38:34.711Z,29.02
2022-10-16T00:40:36.220Z,30.88
2022-10-16T00:42:37.714Z,17.77
2022-10-16T00:44:47.146Z,18.65
2022-10-16T00:46:48.891Z,16.90
2022-10-16T00:48:57.220Z,18.65
2022-10-16T00:50:59.080Z,18.58
2022-10-16T00:53:01.651Z,18.02
2022-10-16T00:55:04.650Z,23.88
2022-10-16T00:57:07.189Z,16.80
2022-10-16T00:59:15.059Z,27.95
2022-10-16T01:01:16.672Z,20.08
2022-10-16T01:03:32.287Z,21.35
2022-10-16T01:05:44.711Z,23.45
2022-10-16T01:07:59.814Z,11.70
2022-10-16T01:10:12.235Z,14.25
2022-10-16T01:12:16.929Z,20.83
2022-10-16T01:14:38.927Z,14.20
2022-10-16T01:16:44.887Z,17.42
2022-10-16T01:18:57.667Z,13.68
2022-10-16T01:21:06.436Z,11.70
2022-10-16T01:23:26.072Z,21.75
2022-10-16T01:25:45.685Z,16.38
2022-10-16T01:27:48.623Z,13.77
2022-10-16T01:29:53.130Z,23.73
2022-10-16T01:31:58.470Z,12.55
2022-10-16T01:34:04.890Z,18.13
2022-10-16T01:36:17.111Z,15.23
2022-10-16T01:38:18.911Z,16.58
2022-10-16T01:40:21.776Z,11.95
2022-10-16T01:42:25.242Z,22.35
2022-10-16T01:44:31.390Z,24.63
2022-10-16T01:46:34.197Z,15.52
2022-10-16T01:48:37.753Z,20.92
2022-10-16T01:50:40.940Z,14.10
2022-10-16T01:52:45.761Z,10.07
2022-10-16T01:54:48.379Z,11.48
2022-10-16T01:56:51.410Z,25.50
2022-10-16T01:59:06.575Z,11.65
2022-10-16T02:01:11.401Z,7.13
2022-10-16T02:03:14.994Z,18.13
2022-10-16T02:05:24.331Z,16.30
2022-10-16T02:07:27.533Z,9.65
2022-10-16T02:09:30.495Z,15.68
2022-10-16T02:11:32.171Z,7.60
2022-10-16T02:13:42.947Z,7.38
2022-10-16T02:15:44.849Z,9.05
2022-10-16T02:17:46.695Z,3.67
2022-10-16T02:19:50.050Z,5.93
2022-10-16T02:21:59.311Z,8.43
2022-10-16T02:24:05.355Z,4.63
2022-10-16T02:26:08.756Z,12.50
2022-10-16T02:28:14.652Z,8.35
2022-10-16T02:30:19.146Z,4.80
2022-10-16T02:32:24.259Z,7.03
2022-10-16T02:34:27.257Z,2.97
2022-10-16T02:36:29.128Z,8.55
2022-10-16T02:38:31.400Z,10.13
2022-10-16T02:40:32.895Z,15.55
2022-10-16T02:42:37.999Z,15.80
2022-10-16T02:44:39.435Z,3.70
2022-10-16T02:46:40.930Z,2.38
2022-10-16T02:48:42.360Z,2.92
2022-10-16T02:50:43.814Z,9.45
2022-10-16T02:52:45.324Z,11.70
2022-10-16T02:54:46.915Z,20.00
2022-10-16T02:56:48.791Z,14.18
2022-10-16T02:58:50.879Z,15.30
2022-10-16T03:00:52.770Z,3.25
2022-10-16T03:03:04.683Z,1.95
2022-10-16T03:05:11.390Z,2.90
2022-10-16T03:07:13.028Z,4.82
2022-10-16T03:09:14.786Z,2.47
2022-10-16T03:11:16.191Z,4.60
2022-10-16T03:13:17.659Z,2.65
2022-10-16T03:15:19.082Z,2.30
2022-10-16T03:17:20.518Z,4.95
2022-10-16T03:19:21.988Z,9.05
2022-10-16T03:21:23.731Z,14.48
2022-10-16T03:23:25.499Z,10.77
2022-10-16T03:25:27.125Z,4.20
2022-10-16T03:27:29.019Z,4.25
2022-10-16T03:29:30.967Z,12.73
2022-10-16T03:31:32.431Z,5.65
2022-10-16T03:33:34.182Z,11.35
2022-10-16T03:35:44.968Z,10.63
2022-10-16T03:37:47.329Z,17.58
2022-10-16T03:39:49.477Z,19.52
2022-10-16T03:41:59.701Z,14.43
2022-10-16T03:44:08.423Z,24.58
2022-10-16T03:46:10.293Z,21.63
2022-10-16T03:48:11.971Z,16.10
2022-10-16T03:50:13.688Z,12.98
2022-10-16T03:52:15.367Z,19.48
2022-10-16T03:54:16.882Z,17.95
2022-10-16T03:56:27.312Z,22.73
2022-10-16T03:58:30.066Z,24.38
2022-10-16T04:00:31.972Z,13.85
2022-10-16T04:02:33.898Z,19.65
2022-10-16T04:04:35.480Z,20.77
2022-10-16T04:06:36.947Z,15.57
2022-10-16T04:08:40.110Z,19.92
2022-10-16T04:10:43.479Z,15.00
2022-10-16T04:12:45.272Z,7.78
2022-10-16T04:14:46.954Z,21.63
2022-10-16T04:16:51.526Z,16.40
2022-10-16T04:18:59.997Z,12.68
2022-10-16T04:21:09.089Z,13.75
2022-10-16T04:23:16.099Z,11.77
2022-10-16T04:25:18.306Z,23.23
2022-10-16T04:27:23.000Z,11.10
2022-10-16T04:29:32.679Z,11.15
2022-10-16T04:31:45.856Z,10.43
2022-10-16T04:33:55.928Z,10.95
2022-10-16T04:36:01.459Z,2.63
2022-10-16T04:38:11.975Z,7.03
2022-10-16T04:40:16.333Z,11.05
2022-10-16T04:42:18.030Z,14.02
2022-10-16T04:44:21.508Z,10.27
2022-10-16T04:46:23.223Z,9.05
2022-10-16T04:48:26.677Z,9.75
2022-10-16T04:50:28.661Z,7.78
2022-10-16T04:52:32.883Z,6.00
2022-10-16T04:54:34.710Z,6.45
2022-10-16T04:56:45.079Z,6.10
2022-10-16T04:58:46.776Z,5.53
2022-10-16T05:00:48.287Z,11.07
2022-10-16T05:02:53.584Z,3.72
2022-10-16T05:04:55.574Z,7.18
2022-10-16T05:06:57.379Z,7.55
2022-10-16T05:09:00.404Z,7.65
2022-10-16T05:11:02.912Z,6.78
2022-10-16T05:13:04.380Z,6.30
2022-10-16T05:15:07.245Z,9.35
2022-10-16T05:17:09.009Z,7.88
2022-10-16T05:19:28.574Z,8.18
2022-10-16T05:21:32.239Z,11.57
2022-10-16T05:23:35.634Z,17.92
2022-10-16T05:25:37.723Z,4.78
2022-10-16T05:27:39.284Z,13.20
2022-10-16T05:29:42.326Z,16.63
2022-10-16T05:31:45.594Z,10.65
2022-10-16T05:33:47.352Z,11.88
2022-10-16T05:35:48.792Z,4.65
2022-10-16T05:37:50.476Z,8.23
2022-10-16T05:39:51.875Z,11.60
2022-10-16T05:41:53.390Z,12.55
2022-10-16T05:43:54.881Z,9.75
2022-10-16T05:46:01.157Z,5.18
2022-10-16T05:48:02.610Z,4.80
2022-10-16T05:50:05.308Z,11.55
2022-10-16T05:52:06.777Z,2.67
2022-10-16T05:54:08.338Z,2.67
2022-10-16T05:56:10.607Z,7.53
2022-10-16T05:58:11.968Z,3.88
2022-10-16T06:00:13.639Z,3.03
2022-10-16T06:02:15.670Z,7.82
2022-10-16T06:04:17.103Z,6.03
2022-10-16T06:06:20.233Z,7.25
2022-10-16T06:08:22.384Z,1.55
2022-10-16T06:10:23.972Z,3.97
2022-10-16T06:12:25.374Z,6.90
2022-10-16T06:14:27.143Z,9.05
2022-10-16T06:16:28.874Z,3.55
2022-10-16T06:18:31.018Z,6.85
2022-10-16T06:20:32.468Z,9.43
2022-10-16T06:22:34.431Z,5.78
2022-10-16T06:24:36.011Z,8.52
2022-10-16T06:26:38.267Z,5.57
2022-10-16T06:28:40.349Z,6.10
2022-10-16T06:30:44.131Z,7.38
2022-10-16T06:32:45.638Z,4.50
2022-10-16T06:34:47.364Z,6.85
2022-10-16T06:36:48.808Z,2.75
2022-10-16T06:38:50.672Z,0.60
2022-10-16T06:40:52.162Z,6.72
2022-10-16T06:42:55.777Z,2.15
2022-10-16T06:44:57.263Z,5.65
2022-10-16T06:46:58.673Z,5.80
2022-10-16T06:49:00.095Z,4.60
2022-10-16T06:53:06.333Z,9.80
2022-10-16T06:55:07.980Z,3.38
2022-10-16T06:57:09.715Z,5.18
2022-10-16T06:59:11.499Z,21.02
2022-10-16T07:01:13.641Z,8.93
2022-10-16T07:03:15.211Z,10.15
2022-10-16T07:05:16.627Z,7.80
2022-10-16T07:07:18.163Z,3.65
2022-10-16T07:09:19.643Z,5.78
2022-10-16T07:11:22.457Z,3.85
2022-10-16T07:13:23.870Z,2.53
2022-10-16T07:15:25.928Z,7.97
2022-10-16T07:17:27.323Z,13.45
2022-10-16T07:19:31.863Z,7.72
2022-10-16T07:21:37.006Z,6.70
2022-10-16T07:23:39.285Z,11.90
2022-10-16T07:25:40.927Z,12.43
2022-10-16T07:27:42.431Z,12.15
2022-10-16T07:29:44.396Z,18.00
2022-10-16T07:31:45.945Z,15.02
2022-10-16T07:33:48.970Z,12.52
2022-10-16T07:35:54.139Z,10.50
2022-10-16T07:37:55.780Z,13.63
2022-10-16T07:39:57.314Z,13.50
2022-10-16T07:41:59.426Z,24.85
2022-10-16T07:44:02.697Z,40.00
2022-10-16T07:46:06.461Z,39.97
2022-10-16T07:48:09.967Z,37.63
2022-10-16T07:50:11.762Z,37.60
2022-10-16T07:52:13.443Z,27.20
2022-10-16T07:54:15.029Z,25.25
2022-10-16T07:56:18.358Z,19.20
2022-10-16T07:58:20.401Z,12.18
2022-10-16T08:00:21.966Z,17.45
2022-10-16T08:02:25.262Z,17.73
2022-10-16T08:04:27.076Z,12.00
2022-10-16T08:06:30.545Z,17.17
2022-10-16T08:08:32.430Z,17.17
2022-10-16T08:10:35.509Z,17.83
2022-10-16T08:12:39.606Z,18.25
2022-10-16T08:14:44.459Z,19.88
2022-10-16T08:16:48.890Z,25.73
2022-10-16T08:18:52.684Z,23.98
2022-10-16T08:20:59.380Z,29.83
2022-10-16T08:23:01.338Z,30.52
2022-10-16T08:25:02.833Z,18.75
2022-10-16T08:27:06.349Z,17.63
2022-10-16T08:29:09.377Z,8.45
2022-10-16T08:33:24.059Z,12.10
2022-10-16T08:35:25.495Z,10.60
2022-10-16T08:37:30.606Z,12.00
2022-10-16T08:39:32.372Z,14.63
2022-10-16T08:41:38.410Z,7.10
2022-10-16T08:44:02.129Z,12.88
2022-10-16T08:46:19.484Z,8.23
2022-10-16T08:48:28.273Z,12.05
2022-10-16T08:50:31.846Z,7.95
2022-10-16T08:52:35.129Z,9.85
2022-10-16T08:54:41.674Z,12.18
2022-10-16T08:56:43.315Z,13.00
2022-10-16T09:00:50.991Z,7.20
2022-10-16T09:03:03.353Z,11.23
2022-10-16T09:05:24.066Z,12.25
2022-10-16T09:07:25.459Z,17.15
2022-10-16T09:09:35.952Z,12.30
2022-10-16T09:11:37.399Z,15.88
2022-10-16T09:13:50.639Z,14.20
2022-10-16T09:15:52.243Z,15.45
2022-10-16T09:17:59.359Z,10.45
2022-10-16T09:20:19.065Z,13.88
2022-10-16T09:22:22.833Z,16.65
2022-10-16T09:24:27.196Z,16.95
2022-10-16T09:26:30.759Z,12.07
2022-10-16T09:28:32.195Z,19.67
2022-10-16T09:30:33.629Z,15.15
2022-10-16T09:32:35.072Z,14.82
2022-10-16T09:34:37.963Z,13.48
2022-10-16T09:36:43.888Z,10.00
2022-10-16T09:38:45.448Z,16.83
2022-10-16T09:40:49.568Z,16.90
2022-10-16T09:42:58.522Z,15.63
2022-10-16T09:44:59.991Z,15.35
2022-10-16T09:47:02.251Z,18.75
2022-10-16T09:49:05.118Z,18.60
2022-10-16T09:51:08.076Z,15.50
2022-10-16T09:53:12.543Z,17.10
2022-10-16T09:55:15.813Z,15.85
2022-10-16T09:57:17.277Z,16.58
2022-10-16T09:59:20.019Z,18.63
2022-10-16T10:01:22.227Z,21.23
2022-10-16T10:03:40.441Z,14.38
2022-10-16T10:05:41.945Z,16.42
2022-10-16T10:07:44.831Z,18.45
2022-10-16T10:09:46.911Z,18.05
2022-10-16T10:11:53.092Z,14.63
2022-10-16T10:14:04.328Z,17.73
2022-10-16T10:16:06.004Z,20.27
2022-10-16T10:18:22.715Z,19.33
2022-10-16T10:20:26.466Z,16.65
2022-10-16T10:22:30.667Z,21.20
2022-10-16T10:24:32.416Z,12.63
2022-10-16T10:26:37.773Z,18.02
2022-10-16T10:28:50.496Z,21.13
2022-10-16T10:30:51.982Z,20.00
2022-10-16T10:33:04.480Z,20.48
2022-10-16T10:35:06.079Z,20.42
2022-10-16T10:37:14.373Z,18.10
2022-10-16T10:39:28.765Z,15.75
2022-10-16T10:41:31.443Z,18.85
2022-10-16T10:43:52.198Z,15.60
2022-10-16T10:45:55.883Z,16.08
2022-10-16T10:48:00.396Z,13.02
2022-10-16T10:50:21.352Z,18.42
2022-10-16T10:52:37.079Z,14.82
2022-10-16T10:54:42.043Z,16.92
2022-10-16T10:57:04.146Z,19.15
2022-10-16T10:59:24.065Z,20.98
2022-10-16T11:01:33.633Z,16.40
2022-10-16T11:03:46.566Z,25.88
2022-10-16T11:05:52.598Z,10.30
2022-10-16T11:07:58.310Z,19.27
2022-10-16T11:10:04.333Z,16.95
2022-10-16T11:12:15.586Z,22.90
2022-10-16T11:14:17.468Z,18.20
2022-10-16T11:16:23.032Z,14.07
2022-10-16T11:18:28.195Z,22.50
2022-10-16T11:20:41.902Z,14.73
2022-10-16T11:22:46.965Z,14.85
2022-10-16T11:25:07.327Z,14.10
2022-10-16T11:27:13.522Z,16.35
2022-10-16T11:29:21.195Z,16.05
2022-10-16T11:31:29.076Z,11.30
2022-10-16T11:33:54.332Z,13.38
2022-10-16T11:38:00.043Z,12.43
2022-10-16T11:40:06.558Z,16.85
2022-10-16T11:42:18.867Z,21.15
2022-10-16T11:44:36.210Z,14.13
2022-10-16T11:46:52.648Z,9.57
2022-10-16T11:49:05.479Z,11.75
2022-10-16T11:51:17.295Z,15.70
2022-10-16T11:53:37.252Z,14.88
2022-10-16T11:55:43.174Z,11.10
2022-10-16T11:57:52.937Z,14.15
2022-10-16T11:59:57.378Z,15.52
2022-10-16T12:02:19.245Z,15.23
2022-10-16T12:04:28.646Z,11.02
2022-10-16T12:06:39.397Z,15.52
2022-10-16T12:08:41.254Z,15.80
2022-10-16T12:10:44.242Z,11.25
2022-10-16T12:12:47.363Z,13.13
2022-10-16T12:15:14.927Z,9.68
2022-10-16T12:17:37.127Z,16.83
2022-10-16T12:19:38.524Z,10.65
2022-10-16T12:21:40.609Z,10.13
2022-10-16T12:23:52.651Z,8.20
2022-10-16T12:25:58.012Z,6.72
2022-10-16T12:27:59.375Z,12.35
2022-10-16T12:30:02.155Z,11.88
2022-10-16T12:32:04.975Z,11.70
2022-10-16T12:34:06.461Z,7.53
2022-10-16T12:36:16.143Z,11.93
2022-10-16T12:38:19.536Z,14.77
2022-10-16T12:40:29.058Z,13.30
2022-10-16T12:42:34.325Z,16.42
2022-10-16T12:44:36.539Z,13.80
2022-10-16T12:46:39.345Z,16.98
2022-10-16T12:48:49.229Z,14.02
2022-10-16T12:50:57.022Z,9.65
2022-10-16T12:52:58.704Z,14.80
2022-10-16T12:55:01.739Z,8.90
2022-10-16T12:57:26.004Z,15.25
2022-10-16T12:59:27.704Z,17.40
2022-10-16T13:01:29.147Z,12.43
2022-10-16T13:03:31.171Z,12.75
2022-10-16T13:05:55.783Z,14.63
2022-10-16T13:10:10.632Z,13.95
2022-10-16T13:12:20.917Z,14.88
2022-10-16T13:14:41.071Z,13.05
2022-10-16T13:16:42.544Z,11.32
2022-10-16T13:18:49.811Z,13.80
2022-10-16T13:21:09.406Z,10.68
2022-10-16T13:23:13.532Z,16.58
2022-10-16T13:25:15.084Z,16.38
2022-10-16T13:27:22.886Z,24.58
2022-10-16T13:29:24.470Z,19.92
2022-10-16T13:31:26.236Z,17.95
2022-10-16T13:33:38.449Z,15.80
2022-10-16T13:35:47.431Z,18.33
2022-10-16T13:37:49.377Z,10.25
2022-10-16T13:39:51.763Z,17.17
2022-10-16T13:42:04.980Z,18.70
2022-10-16T13:44:20.475Z,14.35
2022-10-16T13:46:22.804Z,14.68
2022-10-16T13:48:24.438Z,14.73
2022-10-16T13:50:25.844Z,18.88
2022-10-16T13:52:28.781Z,16.38
2022-10-16T13:54:31.933Z,19.77
2022-10-16T13:56:38.741Z,13.35
2022-10-16T13:58:43.864Z,16.60
2022-10-16T14:00:56.702Z,14.02
2022-10-16T14:03:05.796Z,16.05
2022-10-16T14:05:11.987Z,14.73
2022-10-16T14:07:27.267Z,14.50
2022-10-16T14:09:30.647Z,20.80
2022-10-16T14:11:35.851Z,17.00
2022-10-16T14:13:44.195Z,18.95
2022-10-16T14:15:48.668Z,16.58
2022-10-16T14:17:51.622Z,14.23
2022-10-16T14:19:58.568Z,16.58
2022-10-16T14:22:03.256Z,18.67
2022-10-16T14:24:13.158Z,18.67
2022-10-16T14:26:15.878Z,16.50
2022-10-16T14:28:18.894Z,15.75
2022-10-16T14:30:25.031Z,17.10
2022-10-16T14:32:27.154Z,18.17
2022-10-16T14:34:33.984Z,19.38
2022-10-16T14:36:35.517Z,12.45
2022-10-16T14:38:38.787Z,15.40
2022-10-16T14:40:49.281Z,26.33
2022-10-16T14:42:54.042Z,22.55
2022-10-16T14:44:56.497Z,12.60
2022-10-16T14:47:01.539Z,13.57
2022-10-16T14:49:07.395Z,19.15
2022-10-16T14:51:14.242Z,15.18
2022-10-16T14:53:17.765Z,13.68
2022-10-16T14:55:19.611Z,8.43
2022-10-16T14:57:25.531Z,12.65
2022-10-16T14:59:37.725Z,7.68
2022-10-16T15:01:39.418Z,12.80
2022-10-16T15:03:40.851Z,8.82
2022-10-16T15:05:42.344Z,9.77
2022-10-16T15:07:44.068Z,16.80
2022-10-16T15:09:49.031Z,11.60
2022-10-16T15:11:50.964Z,7.93
2022-10-16T15:13:52.496Z,21.55
2022-10-16T15:15:53.988Z,11.52
2022-10-16T15:18:01.589Z,11.32
2022-10-16T15:20:03.306Z,7.68
2022-10-16T15:22:04.773Z,14.50
2022-10-16T15:24:09.924Z,9.98
2022-10-16T15:26:11.445Z,19.63
2022-10-16T15:28:13.624Z,21.63
2022-10-16T15:30:15.070Z,20.77
2022-10-16T15:32:16.715Z,24.77
2022-10-16T15:34:20.436Z,15.52
2022-10-16T15:36:32.220Z,25.83
2022-10-16T15:38:33.714Z,23.50
2022-10-16T15:40:35.403Z,12.98
2022-10-16T15:42:36.897Z,23.90
2022-10-16T15:44:38.391Z,15.85
2022-10-16T15:46:39.820Z,15.32
2022-10-16T15:48:41.345Z,20.48
2022-10-16T15:52:46.085Z,15.05
2022-10-16T15:54:51.867Z,15.27
2022-10-16T15:56:55.671Z,14.18
2022-10-16T15:58:58.425Z,14.10
2022-10-16T16:01:03.623Z,12.38
2022-10-16T16:03:05.237Z,13.00
2022-10-16T16:05:08.938Z,8.50
2022-10-16T16:07:10.531Z,6.97
2022-10-16T16:09:12.917Z,14.35
2022-10-16T16:11:16.092Z,19.10
2022-10-16T16:13:17.679Z,12.65
2022-10-16T16:15:22.459Z,17.17
2022-10-16T16:17:25.236Z,12.30
2022-10-16T16:19:26.681Z,12.82
2022-10-16T16:21:28.139Z,12.57
2022-10-16T16:23:30.214Z,11.55
2022-10-16T16:25:31.753Z,12.25
2022-10-16T16:27:35.041Z,17.70
2022-10-16T16:29:36.998Z,16.98
2022-10-16T16:31:38.801Z,19.40
2022-10-16T16:33:40.270Z,11.88
2022-10-16T16:35:41.749Z,12.60
2022-10-16T16:37:43.179Z,19.20
2022-10-16T16:39:44.676Z,13.00
2022-10-16T16:41:49.005Z,15.43
2022-10-16T16:43:52.295Z,10.55
2022-10-16T16:45:54.309Z,12.95
2022-10-16T16:47:55.844Z,14.85
2022-10-16T16:49:57.382Z,15.07
2022-10-16T16:51:58.922Z,18.20
2022-10-16T16:54:00.592Z,18.63
2022-10-16T16:56:05.681Z,15.35
2022-10-16T16:58:07.675Z,13.18
2022-10-16T17:00:10.553Z,13.52
2022-10-16T17:02:13.841Z,14.90
2022-10-16T17:04:19.911Z,20.55
2022-10-16T17:06:23.163Z,12.73
2022-10-16T17:08:24.651Z,17.50
2022-10-16T17:10:27.034Z,15.20
2022-10-16T17:12:29.945Z,13.75
2022-10-16T17:14:33.147Z,11.65
2022-10-16T17:16:37.650Z,13.13
2022-10-16T17:20:42.001Z,20.50
2022-10-16T17:22:45.836Z,20.55
2022-10-16T17:26:51.897Z,14.88
2022-10-16T17:28:58.014Z,15.52
2022-10-16T17:33:17.915Z,12.15
2022-10-16T17:35:19.685Z,20.00
2022-10-16T17:37:22.147Z,22.92
2022-10-16T17:39:23.886Z,20.67
2022-10-16T17:41:25.370Z,21.92
2022-10-16T17:43:28.003Z,18.90
2022-10-16T17:45:31.949Z,12.68
2022-10-16T17:47:33.832Z,19.10
2022-10-16T17:49:37.256Z,27.23
2022-10-16T17:51:40.503Z,12.48
2022-10-16T17:53:44.848Z,17.38
2022-10-16T17:55:46.754Z,18.90
2022-10-16T17:57:48.570Z,26.15
2022-10-16T17:59:50.126Z,25.90
2022-10-16T18:01:52.121Z,21.30
2022-10-16T18:03:57.903Z,17.00
2022-10-16T18:06:01.525Z,22.73
2022-10-16T18:08:04.798Z,26.85
2022-10-16T18:10:11.937Z,20.00
2022-10-16T18:12:14.546Z,27.00
2022-10-16T18:14:16.923Z,17.50
2022-10-16T18:16:18.532Z,17.45
2022-10-16T18:18:19.984Z,20.05
2022-10-16T18:20:21.423Z,15.13
2022-10-16T18:22:23.708Z,17.25
2022-10-16T18:24:25.860Z,18.15
2022-10-16T18:26:27.392Z,13.27
2022-10-16T18:28:29.149Z,27.40
2022-10-16T18:30:30.671Z,18.85
2022-10-16T18:32:32.160Z,11.80
2022-10-16T18:34:36.885Z,22.48
2022-10-16T18:36:39.721Z,17.17
2022-10-16T18:38:41.679Z,19.88
2022-10-16T18:40:43.718Z,46.53
2022-10-16T18:42:45.511Z,23.70
2022-10-16T18:44:49.125Z,25.90
2022-10-16T18:46:56.983Z,25.38
2022-10-16T18:48:59.529Z,22.50
2022-10-16T18:51:09.712Z,21.52
2022-10-16T18:53:11.293Z,33.47
2022-10-16T18:55:12.759Z,58.28
2022-10-16T18:57:14.222Z,25.45
2022-10-16T18:59:17.044Z,20.90
2022-10-16T19:01:22.380Z,17.70
2022-10-16T19:03:24.753Z,19.52
2022-10-16T19:05:26.372Z,23.85
2022-10-16T19:07:28.203Z,18.35
2022-10-16T19:09:30.280Z,21.83
2022-10-16T19:11:32.185Z,16.75
2022-10-16T19:13:34.061Z,22.63
2022-10-16T19:15:40.519Z,26.10
2022-10-16T19:17:42.059Z,25.58
2022-10-16T19:19:43.598Z,16.70
2022-10-16T19:21:45.512Z,21.92
2022-10-16T19:23:47.122Z,21.67
2022-10-16T19:25:49.478Z,12.10
2022-10-16T19:27:51.802Z,26.33
2022-10-16T19:29:53.255Z,19.25
2022-10-16T19:31:56.549Z,15.10
2022-10-16T19:33:59.541Z,18.23
2022-10-16T19:36:08.191Z,14.90
2022-10-16T19:38:09.766Z,17.55
2022-10-16T19:40:11.387Z,20.98
2022-10-16T19:42:14.210Z,16.60
2022-10-16T19:44:16.657Z,21.38
2022-10-16T19:46:19.846Z,14.27
2022-10-16T19:50:29.910Z,23.15
2022-10-16T19:52:31.991Z,17.13
2022-10-16T19:54:35.773Z,30.88
2022-10-16T19:56:37.503Z,15.32
2022-10-16T19:58:38.973Z,23.50
2022-10-16T20:00:43.846Z,22.42
2022-10-16T20:02:45.346Z,24.88
2022-10-16T20:04:47.044Z,12.20
2022-10-16T20:06:52.363Z,17.42
2022-10-16T20:08:58.261Z,15.20
2022-10-16T20:11:05.229Z,23.02
2022-10-16T20:13:08.275Z,15.25
2022-10-16T20:15:11.921Z,27.00
2022-10-16T20:19:16.458Z,8.63
2022-10-16T20:21:20.349Z,14.55
2022-10-16T20:23:23.876Z,18.98
2022-10-16T20:25:26.970Z,14.68
2022-10-16T20:27:29.484Z,24.90
2022-10-16T20:29:32.446Z,20.08
2022-10-16T20:31:34.537Z,21.73
2022-10-16T20:33:39.632Z,14.25
2022-10-16T20:35:43.191Z,21.83
2022-10-16T20:37:48.899Z,20.98
2022-10-16T20:39:50.775Z,13.10
2022-10-16T20:41:52.566Z,24.58
2022-10-16T20:43:56.799Z,21.25
2022-10-16T20:45:59.583Z,12.13
2022-10-16T20:48:02.904Z,18.23
2022-10-16T20:50:06.266Z,30.98
2022-10-16T20:52:08.309Z,25.92
2022-10-16T20:54:11.634Z,23.23
2022-10-16T20:56:16.747Z,24.70
2022-10-16T20:58:18.693Z,20.15
2022-10-16T21:00:20.558Z,18.00
2022-10-16T21:04:30.564Z,19.23
2022-10-16T21:06:34.440Z,17.85
2022-10-16T21:08:37.132Z,25.83
2022-10-16T21:10:38.574Z,24.52
2022-10-16T21:12:40.017Z,21.00
2022-10-16T21:14:46.516Z,19.67
2022-10-16T21:16:57.981Z,21.02
2022-10-16T21:18:59.471Z,24.85
2022-10-16T21:21:01.446Z,17.52
2022-10-16T21:23:03.244Z,18.77
2022-10-16T21:25:05.328Z,16.00
2022-10-16T21:27:07.343Z,18.50
2022-10-16T21:29:09.142Z,20.50
2022-10-16T21:31:19.054Z,18.50
2022-10-16T21:33:20.531Z,22.80
2022-10-16T21:35:22.005Z,25.00
2022-10-16T21:37:23.481Z,22.58
2022-10-16T21:39:24.929Z,28.42
2022-10-16T21:41:27.437Z,32.80
2022-10-16T21:43:28.889Z,26.13
2022-10-16T21:45:31.236Z,27.92
2022-10-16T21:47:33.981Z,32.90
2022-10-16T21:49:35.421Z,17.85
2022-10-16T21:51:38.535Z,21.60
2022-10-16T21:53:40.334Z,21.40
2022-10-16T21:55:41.779Z,16.98
2022-10-16T21:57:43.260Z,24.23
2022-10-16T21:59:44.880Z,15.80
2022-10-16T22:01:47.117Z,22.35
2022-10-16T22:03:48.999Z,18.73
2022-10-16T22:05:51.959Z,14.20
2022-10-16T22:07:53.520Z,24.15
2022-10-16T22:09:55.035Z,16.08
2022-10-16T22:11:56.564Z,27.95
2022-10-16T22:13:58.044Z,20.88
2022-10-16T22:15:59.859Z,22.83
2022-10-16T22:18:01.525Z,14.80
2022-10-16T22:20:03.350Z,17.73
2022-10-16T22:22:04.800Z,14.05
2022-10-16T22:24:07.241Z,11.93
2022-10-16T22:26:10.197Z,12.07
2022-10-16T22:28:12.028Z,14.90
2022-10-16T22:30:13.500Z,7.20
2022-10-16T22:32:14.922Z,16.83
2022-10-16T22:34:16.404Z,16.00
2022-10-16T22:36:17.853Z,13.10
2022-10-16T22:38:19.318Z,18.15
2022-10-16T22:40:21.038Z,11.10
2022-10-16T22:42:22.527Z,18.20
2022-10-16T22:44:24.559Z,16.92
2022-10-16T22:46:27.852Z,17.50
2022-10-16T22:48:29.306Z,17.65
2022-10-16T22:50:31.211Z,16.13
2022-10-16T22:52:32.765Z,19.02
2022-10-16T22:54:34.340Z,21.45
2022-10-16T22:56:35.806Z,18.00
2022-10-16T22:58:37.566Z,15.88
2022-10-16T23:00:40.815Z,19.05
2022-10-16T23:02:42.449Z,20.70
2022-10-16T23:04:43.987Z,21.70
2022-10-16T23:06:45.601Z,18.77
2022-10-16T23:08:50.921Z,19.40
2022-10-16T23:10:52.342Z,21.02
2022-10-16T23:12:59.520Z,21.17
2022-10-16T23:15:05.117Z,20.00
2022-10-16T23:17:08.511Z,27.48
2022-10-16T23:19:11.649Z,28.38
2022-10-16T23:21:14.987Z,23.67
2022-10-16T23:23:17.796Z,27.65
2022-10-16T23:25:19.751Z,27.73
2022-10-16T23:27:23.030Z,24.75
2022-10-16T23:29:25.880Z,22.70
2022-10-16T23:31:27.962Z,22.80
2022-10-16T23:33:31.519Z,25.17
2022-10-16T23:37:36.561Z,14.32
2022-10-16T23:39:38.646Z,24.40
2022-10-16T23:41:40.209Z,29.38
2022-10-16T23:43:42.098Z,28.83
2022-10-16T23:45:43.548Z,22.50
2022-10-16T23:47:47.054Z,33.67
2022-10-16T23:49:48.750Z,34.13
2022-10-16T23:51:51.882Z,29.73
2022-10-16T23:53:55.506Z,25.38
2022-10-16T23:55:57.540Z,29.27
2022-10-16T23:58:00.552Z,27.42
